createdAt,value
2019-02-28T00:00:41.400Z,4.80
2019-02-28T00:03:13.844Z,4.80
2019-02-28T00:05:44.842Z,4.70
2019-02-28T00:08:17.797Z,4.80
2019-02-28T00:10:50.141Z,4.70
2019-02-28T00:13:22.716Z,4.70
2019-02-28T00:15:54.848Z,4.70
2019-02-28T00:18:25.364Z,4.60
2019-02-28T00:20:57.168Z,4.70
2019-02-28T00:23:31.753Z,4.80
2019-02-28T00:26:04.140Z,4.80
2019-02-28T00:28:36.180Z,4.70
2019-02-28T00:31:08.785Z,4.70
2019-02-28T00:33:38.994Z,4.70
2019-02-28T00:36:10.438Z,4.80
2019-02-28T00:38:42.216Z,4.70
2019-02-28T00:41:14.320Z,4.60
2019-02-28T00:43:47.138Z,4.60
2019-02-28T00:46:20.905Z,4.50
2019-02-28T00:48:54.101Z,4.60
2019-02-28T00:51:29.717Z,4.60
2019-02-28T00:54:02.013Z,4.50
2019-02-28T00:56:34.387Z,4.50
2019-02-28T00:59:06.352Z,4.50
2019-02-28T01:01:39.540Z,4.50
2019-02-28T01:04:10.801Z,4.40
2019-02-28T01:06:43.700Z,4.40
2019-02-28T01:09:14.544Z,4.50
2019-02-28T01:11:45.650Z,4.30
2019-02-28T01:14:16.436Z,4.40
2019-02-28T01:16:50.177Z,4.40
2019-02-28T01:19:20.496Z,4.30
2019-02-28T01:21:55.422Z,4.20
2019-02-28T01:24:27.220Z,4.40
2019-02-28T01:27:00.832Z,4.30
2019-02-28T01:29:32.937Z,4.30
2019-02-28T01:32:04.841Z,4.40
2019-02-28T01:34:38.228Z,4.30
2019-02-28T01:37:11.505Z,4.20
2019-02-28T01:39:42.321Z,4.30
2019-02-28T01:42:16.295Z,4.40
2019-02-28T01:44:48.075Z,4.30
2019-02-28T01:47:21.023Z,4.40
2019-02-28T01:49:52.293Z,4.40
2019-02-28T01:52:24.200Z,4.40
2019-02-28T01:54:58.580Z,4.30
2019-02-28T01:57:29.466Z,4.40
2019-02-28T02:00:02.317Z,4.40
2019-02-28T02:02:33.192Z,4.40
2019-02-28T02:05:05.188Z,4.20
2019-02-28T02:07:35.515Z,4.30
2019-02-28T02:10:11.429Z,4.30
2019-02-28T02:12:45.768Z,4.40
2019-02-28T02:15:17.927Z,4.30
2019-02-28T02:18:09.422Z,4.20
2019-02-28T02:20:43.402Z,4.20
2019-02-28T02:23:18.208Z,4.20
2019-02-28T02:25:50.516Z,4.30
2019-02-28T02:28:27.211Z,4.10
2019-02-28T02:30:58.054Z,4.20
2019-02-28T02:33:30.645Z,4.30
2019-02-28T02:36:00.973Z,4.30
2019-02-28T02:38:40.113Z,4.30
2019-02-28T02:41:05.910Z,4.20
2019-02-28T02:43:39.593Z,4.30
2019-02-28T02:46:10.485Z,4.30
2019-02-28T02:48:42.346Z,4.30
2019-02-28T02:51:15.679Z,4.30
2019-02-28T02:53:47.763Z,4.30
2019-02-28T02:56:21.359Z,4.30
2019-02-28T02:58:50.802Z,4.20
2019-02-28T03:01:23.293Z,4.20
2019-02-28T03:03:55.161Z,4.30
2019-02-28T03:06:28.577Z,4.20
2019-02-28T03:08:59.254Z,4.20
2019-02-28T03:11:31.658Z,4.10
2019-02-28T03:14:04.342Z,4.10
2019-02-28T03:16:35.657Z,4.10
2019-02-28T03:19:08.713Z,4.10
2019-02-28T03:21:40.906Z,4.20
2019-02-28T03:24:15.264Z,4.10
2019-02-28T03:26:45.490Z,4.00
2019-02-28T03:29:16.030Z,4.10
2019-02-28T03:31:55.272Z,4.10
2019-02-28T03:34:22.059Z,4.00
2019-02-28T03:36:56.968Z,4.10
2019-02-28T03:39:26.364Z,4.10
2019-02-28T03:41:59.282Z,4.10
2019-02-28T03:44:30.264Z,4.10
2019-02-28T03:47:01.707Z,4.10
2019-02-28T03:49:33.099Z,4.10
2019-02-28T03:52:07.609Z,4.10
2019-02-28T03:54:40.203Z,4.00
2019-02-28T03:57:12.321Z,4.00
2019-02-28T03:59:43.413Z,4.00
2019-02-28T04:02:20.795Z,4.00
2019-02-28T04:04:50.211Z,4.00
2019-02-28T04:07:20.722Z,4.00
2019-02-28T04:09:53.763Z,3.90
2019-02-28T04:12:24.194Z,3.90
2019-02-28T04:14:55.314Z,3.90
2019-02-28T04:17:30.425Z,3.80
2019-02-28T04:20:00.641Z,3.80
2019-02-28T04:22:33.841Z,3.90
2019-02-28T04:25:06.461Z,3.80
2019-02-28T04:27:40.365Z,3.80
2019-02-28T04:30:14.041Z,3.90
2019-02-28T04:32:45.915Z,3.90
2019-02-28T04:35:23.923Z,3.80
2019-02-28T04:37:51.978Z,3.80
2019-02-28T04:40:26.977Z,3.80
2019-02-28T04:42:59.724Z,3.70
2019-02-28T04:45:32.408Z,3.70
2019-02-28T04:48:04.939Z,3.70
2019-02-28T04:50:36.363Z,3.70
2019-02-28T04:53:07.300Z,3.60
2019-02-28T04:55:40.496Z,3.60
2019-02-28T04:58:12.961Z,3.60
2019-02-28T05:00:46.613Z,3.60
2019-02-28T05:03:16.625Z,3.50
2019-02-28T05:05:47.658Z,3.50
2019-02-28T05:08:21.322Z,3.60
2019-02-28T05:10:55.655Z,3.60
2019-02-28T05:13:23.256Z,3.60
2019-02-28T05:15:53.003Z,3.70
2019-02-28T05:18:23.255Z,3.70
2019-02-28T05:20:55.937Z,3.60
2019-02-28T05:23:28.270Z,3.60
2019-02-28T05:26:00.271Z,3.60
2019-02-28T05:28:29.420Z,3.60
2019-02-28T05:30:59.204Z,3.60
2019-02-28T05:33:33.104Z,3.60
2019-02-28T05:36:05.581Z,3.70
2019-02-28T05:38:38.035Z,3.70
2019-02-28T05:41:08.921Z,3.80
2019-02-28T05:43:41.461Z,3.80
2019-02-28T05:46:12.629Z,3.90
2019-02-28T05:48:46.252Z,3.90
2019-02-28T05:51:17.589Z,3.90
2019-02-28T05:53:50.288Z,3.90
2019-02-28T05:56:21.274Z,3.90
2019-02-28T05:58:52.483Z,3.80
2019-02-28T06:01:24.432Z,3.90
2019-02-28T06:03:56.684Z,3.90
2019-02-28T06:06:31.837Z,3.90
2019-02-28T06:09:05.680Z,4.00
2019-02-28T06:11:36.088Z,4.00
2019-02-28T06:14:06.135Z,4.00
2019-02-28T06:16:36.971Z,4.10
2019-02-28T06:19:10.030Z,4.20
2019-02-28T06:21:41.417Z,4.20
2019-02-28T06:24:15.707Z,4.20
2019-02-28T06:26:46.601Z,4.30
2019-02-28T06:29:19.156Z,4.30
2019-02-28T06:31:50.068Z,4.30
2019-02-28T06:34:24.905Z,4.30
2019-02-28T06:36:56.520Z,4.30
2019-02-28T06:39:27.709Z,4.40
2019-02-28T06:41:58.859Z,4.40
2019-02-28T06:44:31.434Z,4.50
2019-02-28T06:47:04.993Z,4.50
2019-02-28T06:49:40.870Z,4.50
2019-02-28T06:52:11.809Z,4.60
2019-02-28T06:54:44.080Z,4.60
2019-02-28T06:57:15.696Z,4.50
2019-02-28T06:59:47.210Z,4.60
2019-02-28T07:02:19.592Z,4.60
2019-02-28T07:04:51.337Z,4.60
2019-02-28T07:07:23.020Z,4.60
2019-02-28T07:09:53.910Z,4.60
2019-02-28T07:12:29.363Z,4.50
2019-02-28T07:14:57.417Z,4.50
2019-02-28T07:17:27.774Z,4.60
2019-02-28T07:20:01.337Z,4.70
2019-02-28T07:22:27.977Z,4.80
2019-02-28T07:25:00.106Z,4.80
2019-02-28T07:27:31.752Z,4.80
2019-02-28T07:30:02.648Z,4.80
2019-02-28T07:32:36.341Z,4.80
2019-02-28T07:35:09.046Z,4.80
2019-02-28T07:37:40.114Z,4.80
2019-02-28T07:40:15.567Z,4.80
2019-02-28T07:42:45.329Z,4.70
2019-02-28T07:45:18.193Z,4.70
2019-02-28T07:47:52.781Z,4.70
2019-02-28T07:50:25.020Z,4.70
2019-02-28T07:52:55.972Z,4.70
2019-02-28T07:55:27.183Z,4.70
2019-02-28T07:58:00.593Z,4.70
2019-02-28T08:00:33.544Z,4.80
2019-02-28T08:03:05.472Z,4.70
2019-02-28T08:05:46.501Z,4.70
2019-02-28T08:08:18.096Z,4.70
2019-02-28T08:10:49.936Z,4.70
2019-02-28T08:13:24.937Z,4.70
2019-02-28T08:16:00.234Z,4.70
2019-02-28T08:18:31.555Z,4.70
2019-02-28T08:21:08.741Z,4.70
2019-02-28T08:23:40.924Z,4.70
2019-02-28T08:26:15.570Z,4.70
2019-02-28T08:28:48.507Z,4.80
2019-02-28T08:31:22.980Z,4.80
2019-02-28T08:33:55.529Z,4.80
2019-02-28T08:36:26.006Z,4.80
2019-02-28T08:39:02.152Z,4.80
2019-02-28T08:41:33.915Z,4.90
2019-02-28T08:44:06.015Z,4.90
2019-02-28T08:46:37.385Z,4.80
2019-02-28T08:49:10.014Z,4.80
2019-02-28T08:51:40.365Z,4.70
2019-02-28T08:54:12.665Z,4.80
2019-02-28T08:56:46.127Z,4.70
2019-02-28T08:59:22.569Z,4.70
2019-02-28T09:01:51.653Z,4.70
2019-02-28T09:04:24.116Z,4.70
2019-02-28T09:06:54.537Z,4.70
2019-02-28T09:09:27.633Z,4.70
2019-02-28T09:11:59.722Z,4.70
2019-02-28T09:14:32.725Z,4.70
2019-02-28T09:17:09.613Z,4.70
2019-02-28T09:19:41.694Z,4.70
2019-02-28T09:22:12.663Z,4.70
2019-02-28T09:24:46.795Z,4.70
2019-02-28T09:27:16.690Z,4.60
2019-02-28T09:29:49.226Z,4.60
2019-02-28T09:32:20.256Z,4.50
2019-02-28T09:34:51.997Z,4.60
2019-02-28T09:37:23.850Z,4.70
2019-02-28T09:39:54.984Z,4.60
2019-02-28T09:42:26.997Z,4.70
2019-02-28T09:44:59.322Z,4.70
2019-02-28T09:47:30.794Z,4.50
2019-02-28T09:50:01.713Z,4.40
2019-02-28T09:52:33.061Z,4.10
2019-02-28T09:55:03.933Z,3.90
2019-02-28T09:57:34.797Z,3.20
2019-02-28T10:00:11.675Z,3.20
2019-02-28T10:02:43.772Z,3.00
2019-02-28T10:05:14.571Z,2.90
2019-02-28T10:07:46.690Z,3.20
2019-02-28T10:10:20.796Z,2.90
2019-02-28T10:12:51.889Z,3.10
2019-02-28T10:15:25.488Z,3.00
2019-02-28T10:17:56.974Z,2.80
2019-02-28T10:20:29.349Z,2.80
2019-02-28T10:23:05.003Z,2.50
2019-02-28T10:25:40.963Z,2.80
2019-02-28T10:28:09.466Z,2.80
2019-02-28T10:30:40.475Z,2.90
2019-02-28T10:33:10.581Z,2.50
2019-02-28T10:35:39.752Z,2.60
2019-02-28T10:38:10.397Z,2.50
2019-02-28T10:40:40.136Z,2.30
2019-02-28T10:43:16.466Z,2.50
2019-02-28T10:45:46.792Z,2.60
2019-02-28T10:48:16.216Z,2.70
2019-02-28T10:50:51.422Z,2.70
2019-02-28T10:53:29.509Z,2.60
2019-02-28T10:56:00.845Z,2.50
2019-02-28T10:58:30.442Z,2.20
2019-02-28T11:01:07.691Z,2.20
2019-02-28T11:03:36.506Z,2.30
2019-02-28T11:06:07.613Z,2.20
2019-02-28T11:08:41.065Z,2.40
2019-02-28T11:11:14.476Z,2.50
2019-02-28T11:13:48.264Z,2.50
2019-02-28T11:16:23.700Z,2.50
2019-02-28T11:18:54.974Z,2.70
2019-02-28T11:21:26.000Z,2.40
2019-02-28T11:23:59.085Z,2.40
2019-02-28T11:26:32.108Z,2.50
2019-02-28T11:29:03.901Z,2.60
2019-02-28T11:31:35.325Z,2.30
2019-02-28T11:34:07.773Z,2.40
2019-02-28T11:36:56.851Z,2.40
2019-02-28T11:39:30.486Z,2.30
2019-02-28T11:42:01.971Z,2.30
2019-02-28T11:44:32.824Z,2.30
2019-02-28T11:47:05.197Z,2.20
2019-02-28T11:49:39.855Z,2.30
2019-02-28T11:52:10.608Z,2.20
2019-02-28T11:54:41.243Z,2.40
2019-02-28T11:57:16.236Z,2.40
2019-02-28T11:59:48.147Z,2.30
2019-02-28T12:02:21.650Z,2.30
2019-02-28T12:04:54.163Z,2.50
2019-02-28T12:07:26.744Z,2.70
2019-02-28T12:09:56.093Z,2.30
2019-02-28T12:12:25.698Z,2.60
2019-02-28T12:14:56.522Z,2.30
2019-02-28T12:17:29.278Z,2.10
2019-02-28T12:20:03.835Z,2.00
2019-02-28T12:22:35.845Z,2.10
2019-02-28T12:25:08.658Z,2.00
2019-02-28T12:27:39.644Z,1.70
2019-02-28T12:30:12.075Z,1.90
2019-02-28T12:32:45.485Z,2.10
2019-02-28T12:35:17.554Z,2.00
2019-02-28T12:37:48.810Z,1.90
2019-02-28T12:40:24.084Z,2.20
2019-02-28T12:42:56.049Z,2.20
2019-02-28T12:47:55.980Z,1.60
2019-02-28T12:50:29.291Z,1.50
2019-02-28T12:53:01.662Z,1.10
2019-02-28T12:55:35.574Z,1.10
2019-02-28T12:58:07.110Z,1.70
2019-02-28T13:00:39.727Z,1.40
2019-02-28T13:03:12.244Z,1.30
2019-02-28T13:05:47.747Z,1.40
2019-02-28T13:08:18.790Z,1.30
2019-02-28T13:10:51.560Z,1.10
2019-02-28T13:13:27.718Z,1.40
2019-02-28T13:15:59.564Z,1.60
2019-02-28T13:18:30.557Z,1.40
2019-02-28T13:21:01.593Z,1.40
2019-02-28T13:23:35.112Z,1.40
2019-02-28T13:26:07.501Z,1.50
2019-02-28T13:28:39.526Z,1.50
2019-02-28T13:31:11.546Z,1.20
2019-02-28T13:33:43.222Z,1.10
2019-02-28T13:36:18.267Z,1.10
2019-02-28T13:38:49.344Z,1.20
2019-02-28T13:41:22.060Z,1.40
2019-02-28T13:43:49.770Z,1.20
2019-02-28T13:46:19.547Z,1.20
2019-02-28T13:48:50.825Z,1.10
2019-02-28T13:51:22.578Z,1.30
2019-02-28T13:53:55.851Z,1.20
2019-02-28T13:56:29.105Z,1.00
2019-02-28T13:58:58.440Z,0.90
2019-02-28T14:01:30.578Z,1.00
2019-02-28T14:04:00.865Z,1.00
2019-02-28T14:06:31.312Z,1.00
2019-02-28T14:09:04.108Z,1.20
2019-02-28T14:11:37.180Z,1.30
2019-02-28T14:14:07.802Z,1.20
2019-02-28T14:16:36.530Z,1.10
2019-02-28T14:19:07.380Z,1.00
2019-02-28T14:21:38.292Z,0.80
2019-02-28T14:24:10.271Z,0.80
2019-02-28T14:26:43.088Z,0.90
2019-02-28T14:29:11.759Z,0.70
2019-02-28T14:31:41.157Z,0.90
2019-02-28T14:34:10.036Z,0.90
2019-02-28T14:36:41.763Z,1.00
2019-02-28T14:39:18.601Z,1.00
2019-02-28T14:41:49.469Z,1.00
2019-02-28T14:44:22.836Z,0.90
2019-02-28T14:46:54.913Z,0.90
2019-02-28T14:49:24.497Z,0.90
2019-02-28T14:51:56.379Z,0.70
2019-02-28T14:54:26.541Z,0.60
2019-02-28T14:57:01.261Z,0.50
2019-02-28T14:59:37.144Z,0.40
2019-02-28T15:02:07.622Z,0.40
2019-02-28T15:04:36.277Z,0.50
2019-02-28T15:07:09.045Z,0.60
2019-02-28T15:09:42.521Z,0.50
2019-02-28T15:12:15.223Z,0.40
2019-02-28T15:14:48.827Z,0.30
2019-02-28T15:17:23.214Z,0.30
2019-02-28T15:20:00.083Z,0.30
2019-02-28T15:22:36.649Z,0.20
2019-02-28T15:25:07.201Z,0.10
2019-02-28T15:27:39.815Z,0.10
2019-02-28T15:30:14.263Z,0.00
2019-02-28T15:32:45.637Z,0.00
2019-02-28T15:35:18.225Z,0.00
2019-02-28T15:37:49.281Z,0.00
2019-02-28T15:40:40.729Z,-0.10
2019-02-28T15:43:16.867Z,-0.10
2019-02-28T15:45:45.572Z,-0.10
2019-02-28T15:48:17.348Z,-0.20
2019-02-28T15:50:51.780Z,-0.30
2019-02-28T15:53:25.366Z,-0.30
2019-02-28T15:55:57.391Z,-0.30
2019-02-28T15:58:28.111Z,-0.50
2019-02-28T16:00:59.055Z,-0.40
2019-02-28T16:03:29.481Z,-0.40
2019-02-28T16:05:58.819Z,-0.40
2019-02-28T16:08:28.339Z,-0.50
2019-02-28T16:11:03.240Z,-0.50
2019-02-28T16:13:33.186Z,-0.60
2019-02-28T16:16:05.516Z,-0.60
2019-02-28T16:18:38.100Z,-0.70
2019-02-28T16:21:09.015Z,-0.80
2019-02-28T16:23:41.437Z,-0.70
2019-02-28T16:26:14.925Z,-0.80
2019-02-28T16:28:46.296Z,-0.70
2019-02-28T16:31:18.740Z,-0.70
2019-02-28T16:33:51.857Z,-0.80
2019-02-28T16:36:25.538Z,-0.80
2019-02-28T16:38:56.520Z,-0.80
2019-02-28T16:41:28.156Z,-0.80
2019-02-28T16:44:01.385Z,-0.80
2019-02-28T16:46:33.396Z,-0.80
2019-02-28T16:49:07.340Z,-0.90
2019-02-28T16:51:38.696Z,-0.80
2019-02-28T16:54:11.050Z,-0.80
2019-02-28T16:56:43.185Z,-0.80
2019-02-28T16:59:17.876Z,-0.80
2019-02-28T17:01:51.377Z,-0.90
2019-02-28T17:04:21.901Z,-0.90
2019-02-28T17:06:56.521Z,-0.90
2019-02-28T17:09:46.065Z,-0.80
2019-02-28T17:12:51.816Z,-0.90
2019-02-28T17:15:28.817Z,-0.90
2019-02-28T17:18:04.725Z,-0.90
2019-02-28T17:20:37.690Z,-0.90
2019-02-28T17:23:09.583Z,-0.90
2019-02-28T17:25:41.088Z,-0.80
2019-02-28T17:28:46.629Z,-0.80
2019-02-28T17:31:37.209Z,-0.90
2019-02-28T17:34:08.840Z,-0.90
2019-02-28T17:36:40.555Z,-0.90
2019-02-28T17:39:14.848Z,-0.90
2019-02-28T17:41:46.281Z,-0.90
2019-02-28T17:44:45.833Z,-0.90
2019-02-28T17:47:33.123Z,-0.90
2019-02-28T17:50:39.451Z,-1.00
2019-02-28T17:53:38.128Z,-1.00
2019-02-28T17:56:24.812Z,-1.00
2019-02-28T17:59:15.251Z,-1.00
2019-02-28T18:02:07.982Z,-1.00
2019-02-28T18:05:16.293Z,-1.00
2019-02-28T18:08:14.964Z,-1.00
2019-02-28T18:11:17.474Z,-1.10
2019-02-28T18:14:08.317Z,-1.00
2019-02-28T18:16:58.651Z,-1.10
2019-02-28T18:19:51.071Z,-1.10
2019-02-28T18:22:31.957Z,-1.10
2019-02-28T18:25:24.857Z,-1.10
2019-02-28T18:28:18.896Z,-1.10
2019-02-28T18:31:03.168Z,-1.10
2019-02-28T18:33:34.313Z,-1.10
2019-02-28T18:36:09.174Z,-1.10
2019-02-28T18:38:40.942Z,-1.10
2019-02-28T18:41:13.046Z,-1.00
2019-02-28T18:43:44.180Z,-1.10
2019-02-28T18:46:15.125Z,-1.00
2019-02-28T18:48:46.029Z,-1.00
2019-02-28T18:51:17.150Z,-1.00
2019-02-28T18:54:07.834Z,-1.00
2019-02-28T18:56:38.325Z,-1.00
2019-02-28T18:59:09.006Z,-1.00
2019-02-28T19:01:41.101Z,-1.00
2019-02-28T19:04:12.944Z,-1.00
2019-02-28T19:06:44.253Z,-1.00
2019-02-28T19:09:23.848Z,-0.90
2019-02-28T19:11:54.131Z,-0.90
2019-02-28T19:14:25.757Z,-1.00
2019-02-28T19:16:54.861Z,-0.90
2019-02-28T19:19:24.852Z,-1.00
2019-02-28T19:21:56.940Z,-1.00
2019-02-28T19:24:29.322Z,-1.00
2019-02-28T19:27:00.713Z,-1.00
2019-02-28T19:29:33.932Z,-0.90
2019-02-28T19:32:07.815Z,-1.00
2019-02-28T19:34:39.888Z,-1.00
2019-02-28T19:37:10.877Z,-1.00
2019-02-28T19:39:42.141Z,-1.00
2019-02-28T19:42:14.762Z,-1.00
2019-02-28T19:47:19.061Z,-1.10
2019-02-28T19:49:52.658Z,-1.00
2019-02-28T19:52:24.012Z,-1.10
2019-02-28T19:54:55.849Z,-1.10
2019-02-28T19:57:27.272Z,-1.10
2019-02-28T19:59:58.289Z,-1.10
2019-02-28T20:02:27.802Z,-1.20
2019-02-28T20:04:57.433Z,-1.20
2019-02-28T20:07:26.649Z,-1.20
2019-02-28T20:09:58.558Z,-1.10
2019-02-28T20:12:31.153Z,-1.20
2019-02-28T20:15:03.920Z,-1.20
2019-02-28T20:17:36.364Z,-1.20
2019-02-28T20:20:08.154Z,-1.20
2019-02-28T20:22:39.673Z,-1.20
2019-02-28T20:25:13.235Z,-1.20
2019-02-28T20:27:45.674Z,-1.20
2019-02-28T20:30:19.031Z,-1.20
2019-02-28T20:32:49.478Z,-1.20
2019-02-28T20:35:26.637Z,-1.20
2019-02-28T20:37:56.301Z,-1.20
2019-02-28T20:40:28.976Z,-1.20
2019-02-28T20:42:59.723Z,-1.20
2019-02-28T20:45:32.625Z,-1.20
2019-02-28T20:48:04.306Z,-1.20
2019-02-28T20:50:37.807Z,-1.20
2019-02-28T20:53:08.682Z,-1.30
2019-02-28T20:55:42.260Z,-1.30
2019-02-28T20:58:13.826Z,-1.30
2019-02-28T21:00:48.713Z,-1.30
2019-02-28T21:03:20.657Z,-1.30
2019-02-28T21:05:53.160Z,-1.30
2019-02-28T21:08:25.634Z,-1.30
2019-02-28T21:10:59.608Z,-1.30
2019-02-28T21:13:31.705Z,-1.30
2019-02-28T21:16:03.790Z,-1.20
2019-02-28T21:18:39.787Z,-1.20
2019-02-28T21:21:12.834Z,-1.20
2019-02-28T21:23:44.329Z,-1.30
2019-02-28T21:26:16.316Z,-1.30
2019-02-28T21:28:47.540Z,-1.20
2019-02-28T21:31:19.817Z,-1.30
2019-02-28T21:33:51.145Z,-1.30
2019-02-28T21:36:23.039Z,-1.30
2019-02-28T21:38:52.660Z,-1.30
2019-02-28T21:41:24.864Z,-1.30
2019-02-28T21:43:56.560Z,-1.30
2019-02-28T21:46:28.146Z,-1.40
2019-02-28T21:48:59.832Z,-1.40
2019-02-28T21:51:31.608Z,-1.40
2019-02-28T21:54:07.915Z,-1.50
2019-02-28T21:56:39.060Z,-1.50
2019-02-28T21:59:08.620Z,-1.50
2019-02-28T22:01:37.880Z,-1.40
2019-02-28T22:04:09.233Z,-1.50
2019-02-28T22:06:42.664Z,-1.50
2019-02-28T22:09:15.925Z,-1.50
2019-02-28T22:11:46.252Z,-1.60
2019-02-28T22:14:16.888Z,-1.50
2019-02-28T22:16:49.542Z,-1.50
2019-02-28T22:19:21.064Z,-1.50
2019-02-28T22:21:53.522Z,-1.50
2019-02-28T22:24:25.777Z,-1.50
2019-02-28T22:26:55.323Z,-1.50
2019-02-28T22:29:26.124Z,-1.50
2019-02-28T22:32:24.422Z,-1.50
2019-02-28T22:35:09.685Z,-1.50
2019-02-28T22:37:41.790Z,-1.50
2019-02-28T22:40:15.792Z,-1.50
2019-02-28T22:42:49.908Z,-1.50
2019-02-28T22:45:21.538Z,-1.50
2019-02-28T22:47:53.041Z,-1.50
2019-02-28T22:50:24.614Z,-1.50
2019-02-28T22:52:56.553Z,-1.50
2019-02-28T22:55:30.389Z,-1.60
2019-02-28T22:58:03.177Z,-1.60
2019-02-28T23:00:47.637Z,-1.60
2019-02-28T23:03:18.665Z,-1.60
2019-02-28T23:05:51.113Z,-1.60
2019-02-28T23:08:25.024Z,-1.60
2019-02-28T23:10:56.469Z,-1.60
2019-02-28T23:13:27.581Z,-1.60
2019-02-28T23:16:00.429Z,-1.60
2019-02-28T23:18:41.081Z,-1.60
2019-02-28T23:21:12.490Z,-1.60
2019-02-28T23:23:43.441Z,-1.60
2019-02-28T23:26:15.155Z,-1.60
2019-02-28T23:28:56.514Z,-1.60
2019-02-28T23:31:47.701Z,-1.60
2019-02-28T23:34:39.905Z,-1.70
2019-02-28T23:37:13.349Z,-1.70
2019-02-28T23:39:56.053Z,-1.70
2019-02-28T23:42:27.433Z,-1.70
2019-02-28T23:44:58.649Z,-1.80
2019-02-28T23:47:28.744Z,-1.70
2019-02-28T23:50:00.316Z,-1.70
2019-02-28T23:52:33.801Z,-1.80
2019-02-28T23:55:05.736Z,-1.80
2019-02-28T23:57:40.554Z,-1.70
